Emporia, Kansas
Current Conditions -  °F | °C
As of 7:53 AM on Thursday 30 Oct 2014 (Local Time) from KEMP Reporting Station
Clear Clear  
Wind Chill: 51°   Ceiling: Unl
Heat Index: 51°   Visibility: 10mi
Dew Point: 37°   Wind: 12mph
Humidity: 59%   Direction: 250°WSW
Pressure: 30.01"   Gusts: NA
Location:  38.41°N, 96.18°W
Report Text: KEMP 301253Z AUTO 25010KT 10SM CLR 11/03 A3001 RMK AO2 SLP164 T01060028
Loading
Personal Weather Stations






























Interactive Weather Map New forecast layout! Learn more

10-Day Weather Forecast

Advertisements
Track Severe Weather on mobile